Time;durP1;ratioP1;P1;durP2;ratioP2;P2;SDS_P1;SDS_P2;PMS_P1;PMS_P2;Temp;Humidity;BMP_temperature;BMP_pressure;BME280_temperature;BME280_humidity;BME280_pressure;Samples;Min_cycle;Max_cycle;Signal;HPM_P1;HPM_P2
2022/10/05 00:01:14;;;;;;;1.38;0.93;;;20.70;85.40;;;;;;5148224;27;45434;-75
2022/10/05 00:03:41;;;;;;;0.80;0.80;;;20.70;85.40;;;;;;5147739;27;47291;-75
2022/10/05 00:06:10;;;;;;;1.23;1.02;;;20.70;85.30;;;;;;5147299;27;45262;-75
2022/10/05 00:08:36;;;;;;;0.80;0.80;;;20.70;85.30;;;;;;5148098;27;45243;-75
2022/10/05 00:11:07;;;;;;;1.95;0.90;;;20.70;85.30;;;;;;5147897;27;45595;-75
2022/10/05 00:13:34;;;;;;;0.80;0.80;;;20.70;85.20;;;;;;5147696;27;46447;-75
2022/10/05 00:16:12;;;;;;;1.58;1.10;;;20.70;85.20;;;;;;5147477;27;45283;-75
2022/10/05 00:18:39;;;;;;;1.15;0.90;;;20.70;85.10;;;;;;5147879;27;45070;-75
2022/10/05 00:21:17;;;;;;;1.63;1.10;;;20.70;85.20;;;;;;5150509;27;45212;-75
2022/10/05 00:23:43;;;;;;;0.95;0.85;;;20.70;85.30;;;;;;5147750;27;46588;-75
2022/10/05 00:26:16;;;;;;;3.85;1.00;;;20.70;85.20;;;;;;5148946;27;45194;-75
2022/10/05 00:28:43;;;;;;;1.50;1.08;;;20.60;85.10;;;;;;5151478;27;45184;-75
2022/10/05 00:31:17;;;;;;;1.52;1.00;;;20.70;85.20;;;;;;5151290;27;45223;-75
2022/10/05 00:33:43;;;;;;;1.33;1.10;;;20.70;85.00;;;;;;5147845;27;46354;-75
2022/10/05 00:36:10;;;;;;;1.30;0.90;;;20.70;85.00;;;;;;5151291;27;45243;-75
2022/10/05 00:38:37;;;;;;;1.25;0.90;;;20.70;84.90;;;;;;5151132;27;45297;-75
2022/10/05 00:41:08;;;;;;;0.80;0.80;;;20.70;84.70;;;;;;5151227;27;45557;-75
2022/10/05 00:43:55;;;;;;;1.13;0.80;;;20.70;84.70;;;;;;5151011;27;45305;-75
2022/10/05 00:46:26;;;;;;;1.13;0.88;;;20.70;84.60;;;;;;5150735;27;45193;-75
2022/10/05 00:49:02;;;;;;;1.23;0.95;;;20.70;84.70;;;;;;5151101;27;45407;-75
2022/10/05 00:51:30;;;;;;;1.48;0.82;;;20.70;84.60;;;;;;5147558;27;45439;-75
2022/10/05 00:54:08;;;;;;;0.90;0.90;;;20.70;84.50;;;;;;5150459;27;45306;-75
2022/10/05 00:56:54;;;;;;;1.67;0.95;;;20.70;84.50;;;;;;5129962;27;45287;-75
2022/10/05 00:59:30;;;;;;;2.05;1.08;;;20.70;84.40;;;;;;5130014;27;45357;-75
2022/10/05 01:02:07;;;;;;;2.33;0.90;;;20.70;84.40;;;;;;5129618;27;45395;-75
2022/10/05 01:04:40;;;;;;;1.17;0.80;;;20.70;84.30;;;;;;5128936;27;46671;-76
2022/10/05 01:07:15;;;;;;;1.65;1.02;;;20.70;84.30;;;;;;5129474;27;45357;-75
2022/10/05 01:09:49;;;;;;;1.85;1.13;;;20.70;84.30;;;;;;5129530;27;45267;-76
2022/10/05 01:12:25;;;;;;;1.10;1.00;;;20.70;84.20;;;;;;5129827;27;45446;-75
2022/10/05 01:15:00;;;;;;;1.13;0.75;;;20.70;84.00;;;;;;5133012;27;47289;-75
2022/10/05 01:17:38;;;;;;;1.30;0.93;;;20.70;84.10;;;;;;5126495;27;45252;-75
2022/10/05 01:20:27;;;;;;;1.55;0.90;;;20.70;84.10;;;;;;5129876;27;45223;-75
2022/10/05 01:23:29;;;;;;;0.70;0.70;;;20.70;84.30;;;;;;5130045;27;45131;-75
2022/10/05 01:29:16;;;;;;;1.25;0.90;;;20.60;84.00;;;;;;5126139;27;45240;-75
2022/10/05 01:31:50;;;;;;;1.70;0.90;;;20.60;84.00;;;;;;5135186;27;45296;-75
2022/10/05 01:34:22;;;;;;;1.10;1.00;;;20.60;84.00;;;;;;5150193;27;45558;-75
2022/10/05 01:36:57;;;;;;;0.98;0.90;;;20.60;84.00;;;;;;5150163;27;45455;-75
2022/10/05 01:39:34;;;;;;;1.17;0.80;;;20.60;83.90;;;;;;5150319;27;45277;-75
2022/10/05 01:42:11;;;;;;;0.73;0.73;;;20.60;83.90;;;;;;5150385;27;45323;-75
2022/10/05 01:44:50;;;;;;;1.20;0.90;;;20.60;83.80;;;;;;5149960;27;45477;-75
2022/10/05 01:47:22;;;;;;;1.33;0.90;;;20.60;83.80;;;;;;5149511;27;46591;-75
2022/10/05 01:49:59;;;;;;;1.38;1.00;;;20.70;83.80;;;;;;5149779;27;45202;-74
2022/10/05 01:52:38;;;;;;;0.80;0.80;;;20.70;83.60;;;;;;5149275;27;45264;-75
2022/10/05 01:55:18;;;;;;;1.38;0.90;;;20.70;83.40;;;;;;5149573;27;45511;-74
2022/10/05 01:57:57;;;;;;;1.05;0.90;;;20.70;83.20;;;;;;5149031;27;47656;-75
2022/10/05 02:00:25;;;;;;;1.08;0.90;;;20.60;82.90;;;;;;5149114;27;45247;-74
2022/10/05 02:02:58;;;;;;;1.10;0.90;;;20.60;82.60;;;;;;5149068;27;45265;-74
2022/10/05 02:05:32;;;;;;;1.23;1.13;;;20.60;82.40;;;;;;5148568;27;45514;-75
2022/10/05 02:08:02;;;;;;;3.63;1.10;;;20.60;82.10;;;;;;5147823;27;45256;-74
2022/10/05 02:10:37;;;;;;;1.55;1.05;;;20.60;81.80;;;;;;5140068;27;45546;-74
2022/10/05 02:13:11;;;;;;;1.27;0.88;;;20.60;81.60;;;;;;5148965;27;45443;-75
2022/10/05 02:15:44;;;;;;;1.45;1.00;;;20.60;81.70;;;;;;5149309;27;45285;-74
2022/10/05 02:18:14;;;;;;;1.30;0.90;;;20.60;81.80;;;;;;5149230;27;47313;-74
2022/10/05 02:20:43;;;;;;;2.65;0.90;;;20.60;81.90;;;;;;5148762;27;45917;-74
2022/10/05 02:23:16;;;;;;;1.20;1.00;;;20.60;82.00;;;;;;5149285;27;45267;-74
2022/10/05 02:25:46;;;;;;;2.17;1.00;;;20.60;82.10;;;;;;5149189;27;45290;-74
2022/10/05 02:28:16;;;;;;;0.82;0.82;;;20.60;82.20;;;;;;5148567;27;46959;-74
2022/10/05 02:30:49;;;;;;;1.80;1.00;;;20.60;82.30;;;;;;5148425;27;45282;-75
2022/10/05 02:33:23;;;;;;;1.33;1.00;;;20.60;82.30;;;;;;5148948;27;45235;-75
2022/10/05 02:35:50;;;;;;;1.08;0.90;;;20.60;82.30;;;;;;5148916;27;45461;-74
2022/10/05 02:38:23;;;;;;;1.35;1.00;;;20.60;82.50;;;;;;5147236;27;46399;-74
2022/10/05 02:40:58;;;;;;;1.15;0.90;;;20.60;82.40;;;;;;5147597;27;45410;-74
2022/10/05 02:43:39;;;;;;;1.55;0.90;;;20.60;82.50;;;;;;5146766;27;45382;-74
2022/10/05 02:46:14;;;;;;;2.17;0.77;;;20.60;82.50;;;;;;5147342;27;45238;-74
2022/10/05 02:48:48;;;;;;;1.48;0.98;;;20.60;82.50;;;;;;5143365;27;46176;-74
2022/10/05 02:51:20;;;;;;;1.85;1.13;;;20.70;82.60;;;;;;5133112;27;45213;-74
2022/10/05 02:54:00;;;;;;;1.55;0.90;;;20.70;82.60;;;;;;5130876;27;45496;-74
2022/10/05 02:56:33;;;;;;;1.30;0.70;;;20.70;82.60;;;;;;5125966;27;45509;-75
2022/10/05 02:59:08;;;;;;;1.50;1.20;;;20.70;82.70;;;;;;5142489;27;45351;-74
2022/10/05 03:01:41;;;;;;;0.95;0.80;;;20.70;82.60;;;;;;5135456;27;45249;-74
2022/10/05 03:04:20;;;;;;;2.53;1.10;;;20.70;82.70;;;;;;5126118;27;45254;-74
2022/10/05 03:06:55;;;;;;;2.15;1.02;;;20.70;82.60;;;;;;5131886;27;45529;-75
2022/10/05 03:09:27;;;;;;;0.82;0.77;;;20.70;82.70;;;;;;5146425;27;47561;-74
2022/10/05 03:12:01;;;;;;;0.93;0.80;;;20.70;82.60;;;;;;5129162;27;45446;-74
2022/10/05 03:14:36;;;;;;;1.08;0.85;;;20.70;82.80;;;;;;5136882;27;45388;-74
2022/10/05 03:17:13;;;;;;;1.02;0.90;;;20.70;82.80;;;;;;5126625;27;45270;-74
2022/10/05 03:19:55;;;;;;;1.25;1.08;;;20.70;82.80;;;;;;5139773;27;47133;-75
2022/10/05 03:22:34;;;;;;;1.90;1.20;;;20.60;82.80;;;;;;5146088;27;45692;-74
2022/10/05 03:25:19;;;;;;;1.80;1.00;;;20.60;82.80;;;;;;5143625;27;45273;-74
2022/10/05 03:27:53;;;;;;;1.33;0.80;;;20.60;82.70;;;;;;5146887;27;45366;-74
2022/10/05 03:30:22;;;;;;;1.60;0.85;;;20.60;82.60;;;;;;5146194;27;45268;-74
2022/10/05 03:33:01;;;;;;;1.17;0.90;;;20.60;82.70;;;;;;5146339;27;45804;-75
2022/10/05 03:35:35;;;;;;;0.95;0.90;;;20.60;82.70;;;;;;5132128;27;45279;-74
2022/10/05 03:38:09;;;;;;;1.15;0.90;;;20.60;82.60;;;;;;5146480;27;45363;-74
2022/10/05 03:40:39;;;;;;;1.77;0.95;;;20.70;82.60;;;;;;5144725;27;45336;-74
2022/10/05 03:43:21;;;;;;;0.90;0.75;;;20.70;82.60;;;;;;5146501;27;45217;-74
2022/10/05 03:45:54;;;;;;;0.68;0.68;;;20.70;82.60;;;;;;5145261;27;45533;-75
2022/10/05 03:48:28;;;;;;;0.77;0.77;;;20.70;82.50;;;;;;5145861;27;45502;-75
2022/10/05 03:51:06;;;;;;;1.55;1.17;;;20.70;82.50;;;;;;5146526;27;46278;-73
2022/10/05 03:53:40;;;;;;;1.50;0.90;;;20.70;82.60;;;;;;5146156;27;45413;-74
2022/10/05 03:56:14;;;;;;;1.20;0.93;;;20.70;82.50;;;;;;5146663;27;45353;-74
2022/10/05 03:58:48;;;;;;;0.70;0.63;;;20.70;82.50;;;;;;5146762;27;45224;-74
2022/10/05 04:01:19;;;;;;;0.88;0.70;;;20.70;82.40;;;;;;5141480;27;46982;-75
2022/10/05 04:03:50;;;;;;;1.00;0.82;;;20.70;82.50;;;;;;5149757;27;45352;-74
2022/10/05 04:06:22;;;;;;;1.17;1.00;;;20.70;82.40;;;;;;5148961;27;45284;-74
2022/10/05 04:08:55;;;;;;;1.42;0.80;;;20.70;82.50;;;;;;5149861;27;45520;-74
2022/10/05 04:11:27;;;;;;;0.95;0.77;;;20.70;82.60;;;;;;5144315;27;45435;-75
2022/10/05 04:14:00;;;;;;;1.48;0.88;;;20.70;82.60;;;;;;5150194;27;45337;-74
2022/10/05 04:16:31;;;;;;;2.17;1.00;;;20.70;82.50;;;;;;5149978;27;45414;-74
2022/10/05 04:19:03;;;;;;;1.00;0.90;;;20.70;82.60;;;;;;5150043;27;45193;-75
2022/10/05 04:21:36;;;;;;;1.15;0.95;;;20.70;82.60;;;;;;5139651;27;46568;-74
2022/10/05 04:24:06;;;;;;;1.67;0.95;;;20.70;82.60;;;;;;5137781;27;45331;-74
2022/10/05 04:26:38;;;;;;;1.00;0.90;;;20.70;82.60;;;;;;5141154;27;45372;-74
2022/10/05 04:29:24;;;;;;;0.70;0.70;;;20.70;82.70;;;;;;5148506;27;45422;-75
2022/10/05 04:32:08;;;;;;;1.38;0.88;;;20.70;83.60;;;;;;5133292;27;47027;-75
2022/10/05 04:34:52;;;;;;;0.90;0.80;;;20.70;82.60;;;;;;5142333;27;45291;-74
2022/10/05 04:37:25;;;;;;;1.17;1.00;;;20.70;82.60;;;;;;5148654;27;45407;-74
2022/10/05 04:40:04;;;;;;;1.80;0.80;;;20.70;82.50;;;;;;5140638;27;45470;-74
2022/10/05 04:42:36;;;;;;;1.42;0.82;;;20.70;82.60;;;;;;5128706;27;46412;-75
2022/10/05 04:45:10;;;;;;;1.13;0.93;;;20.60;82.40;;;;;;5131102;27;45322;-74
2022/10/05 04:48:03;;;;;;;1.20;0.95;;;20.70;82.50;;;;;;5148693;27;45284;-74
2022/10/05 04:50:45;;;;;;;1.05;0.80;;;20.70;82.40;;;;;;5140902;27;45415;-74
2022/10/05 04:53:22;;;;;;;1.25;0.93;;;20.70;82.00;;;;;;5149081;27;45329;-75
2022/10/05 04:55:56;;;;;;;1.27;0.80;;;20.70;81.90;;;;;;5148669;27;45382;-74
2022/10/05 04:58:39;;;;;;;0.80;0.80;;;20.70;82.10;;;;;;5149164;27;45425;-74
2022/10/05 05:01:20;;;;;;;0.90;0.80;;;20.60;82.10;;;;;;5150033;27;45533;-74
2022/10/05 05:04:16;;;;;;;1.00;0.85;;;20.60;82.10;;;;;;5147990;27;48828;-74
2022/10/05 05:06:54;;;;;;;1.65;1.25;;;20.60;81.90;;;;;;5148814;27;45411;-74
2022/10/05 05:09:59;;;;;;;1.10;0.90;;;20.60;81.90;;;;;;5138361;27;45243;-74
2022/10/05 05:12:37;;;;;;;1.13;1.02;;;20.60;81.60;;;;;;5140759;27;45395;-74
2022/10/05 05:15:21;;;;;;;1.10;1.00;;;20.60;81.50;;;;;;5142846;27;47704;-74
2022/10/05 05:18:02;;;;;;;1.05;0.90;;;20.60;81.30;;;;;;5142072;27;45474;-75
2022/10/05 05:20:43;;;;;;;1.00;0.90;;;20.60;81.40;;;;;;5128371;27;45442;-74
2022/10/05 05:23:19;;;;;;;1.35;0.90;;;20.60;81.40;;;;;;5139466;27;45407;-74
2022/10/05 05:25:57;;;;;;;1.23;0.90;;;20.60;81.40;;;;;;5148032;27;47897;-74
2022/10/05 05:28:29;;;;;;;1.30;0.70;;;20.60;81.50;;;;;;5143974;27;45282;-74
2022/10/05 05:31:05;;;;;;;1.48;0.98;;;20.60;81.50;;;;;;5151342;27;45379;-74
2022/10/05 05:33:40;;;;;;;1.33;0.82;;;20.60;81.60;;;;;;5127275;27;45372;-75
2022/10/05 05:36:36;;;;;;;0.90;0.80;;;20.60;81.50;;;;;;5145292;27;46764;-75
2022/10/05 05:39:23;;;;;;;1.23;0.85;;;20.60;81.60;;;;;;5143404;27;45367;-75
2022/10/05 05:41:58;;;;;;;0.95;0.77;;;20.70;81.70;;;;;;5147893;27;45355;-74
2022/10/05 05:44:28;;;;;;;1.10;0.80;;;20.70;81.80;;;;;;5146885;27;45573;-74
2022/10/05 05:47:00;;;;;;;1.23;0.80;;;20.70;81.80;;;;;;5139702;27;45766;-74
2022/10/05 05:49:44;;;;;;;1.00;0.73;;;20.70;81.80;;;;;;5139939;27;45270;-74
2022/10/05 05:52:18;;;;;;;1.08;0.95;;;20.70;81.90;;;;;;5148064;27;45354;-74
2022/10/05 05:54:56;;;;;;;1.08;0.85;;;20.70;81.90;;;;;;5147933;27;45577;-74
2022/10/05 05:57:29;;;;;;;1.05;1.00;;;20.70;81.90;;;;;;5148356;27;45542;-74
2022/10/05 06:00:04;;;;;;;0.82;0.80;;;20.70;81.90;;;;;;5139327;27;45331;-74
2022/10/05 06:02:38;;;;;;;1.42;0.90;;;20.60;82.90;;;;;;5128371;27;45337;-74
2022/10/05 06:05:21;;;;;;;2.63;1.00;;;20.60;81.90;;;;;;5134917;27;45486;-75
2022/10/05 06:07:50;;;;;;;1.10;0.88;;;20.70;82.10;;;;;;5147531;27;47558;-75
2022/10/05 06:10:26;;;;;;;0.85;0.70;;;20.60;82.00;;;;;;5147174;27;45431;-74
2022/10/05 06:12:56;;;;;;;0.95;0.80;;;20.60;82.10;;;;;;5140672;27;45194;-74
2022/10/05 06:15:32;;;;;;;0.65;0.60;;;20.60;82.10;;;;;;5143479;27;45225;-74
2022/10/05 06:18:04;;;;;;;0.70;0.70;;;20.60;82.10;;;;;;5135433;27;45780;-74
2022/10/05 06:20:39;;;;;;;1.27;0.80;;;20.60;82.10;;;;;;5135311;27;45455;-74
2022/10/05 06:23:14;;;;;;;1.73;0.90;;;20.60;82.10;;;;;;5143909;27;45390;-75
2022/10/05 06:25:54;;;;;;;1.20;0.88;;;20.60;82.00;;;;;;5127325;27;45394;-74
2022/10/05 06:28:21;;;;;;;0.93;0.75;;;20.60;82.00;;;;;;5146855;27;47678;-74
2022/10/05 06:31:00;;;;;;;1.40;0.80;;;20.60;82.00;;;;;;5142770;27;45455;-74
2022/10/05 06:33:47;;;;;;;1.08;0.73;;;20.60;82.00;;;;;;5143920;27;45466;-74
2022/10/05 06:36:37;;;;;;;1.73;0.90;;;20.60;82.00;;;;;;5142144;27;45337;-74
2022/10/05 06:39:33;;;;;;;1.20;0.82;;;20.60;81.90;;;;;;5139760;27;46626;-74
2022/10/05 06:42:18;;;;;;;1.80;1.05;;;20.60;81.80;;;;;;5144667;27;45399;-75
2022/10/05 06:44:52;;;;;;;1.05;0.80;;;20.60;81.80;;;;;;5147402;27;45351;-74
2022/10/05 06:47:29;;;;;;;2.85;0.95;;;20.60;81.70;;;;;;5147819;27;45342;-74
2022/10/05 06:50:03;;;;;;;1.00;0.90;;;20.70;81.80;;;;;;5141410;27;47502;-74
2022/10/05 06:52:38;;;;;;;1.63;1.00;;;20.60;81.80;;;;;;5134966;27;46296;-74
2022/10/05 06:55:17;;;;;;;2.65;0.82;;;20.60;81.70;;;;;;5144076;27;45301;-74
2022/10/05 06:57:55;;;;;;;3.53;1.27;;;20.70;81.90;;;;;;5147257;27;45426;-74
2022/10/05 07:00:24;;;;;;;1.45;0.82;;;20.70;81.90;;;;;;5147081;27;47012;-74
2022/10/05 07:03:00;;;;;;;1.27;0.95;;;20.70;82.00;;;;;;5146060;27;45547;-74
2022/10/05 07:05:48;;;;;;;1.42;0.90;;;20.60;81.70;;;;;;5145012;27;45311;-74
2022/10/05 07:08:22;;;;;;;1.95;0.98;;;20.60;81.90;;;;;;5145093;27;45364;-74
2022/10/05 07:11:00;;;;;;;1.52;0.80;;;20.60;81.90;;;;;;5145515;27;46972;-74
2022/10/05 07:13:42;;;;;;;2.53;1.00;;;20.60;81.80;;;;;;5135554;27;45319;-74
2022/10/05 07:16:17;;;;;;;1.17;0.88;;;20.60;81.80;;;;;;5146900;27;45305;-74
2022/10/05 07:18:55;;;;;;;1.60;0.70;;;20.60;81.80;;;;;;5147645;27;45365;-75
2022/10/05 07:21:34;;;;;;;1.25;0.80;;;20.60;81.70;;;;;;5126219;27;45563;-74
2022/10/05 07:24:10;;;;;;;0.98;0.80;;;20.60;81.80;;;;;;5137682;27;45393;-74
2022/10/05 07:26:42;;;;;;;1.13;0.85;;;20.60;81.90;;;;;;5145472;27;45472;-75
2022/10/05 07:29:23;;;;;;;1.35;0.80;;;20.70;81.90;;;;;;5133628;27;45382;-74
2022/10/05 07:31:59;;;;;;;1.05;0.73;;;20.70;81.90;;;;;;5131709;27;48230;-73
2022/10/05 07:34:36;;;;;;;23.13;2.33;;;20.70;81.90;;;;;;5142510;27;45929;-75
2022/10/05 07:40:00;;;;;;;1.17;0.93;;;20.70;81.90;;;;;;5148373;27;45207;-75
2022/10/05 07:42:41;;;;;;;1.90;0.90;;;20.70;82.00;;;;;;5148182;27;45418;-75
2022/10/05 07:45:18;;;;;;;1.65;0.80;;;20.70;81.90;;;;;;5145311;27;45206;-75
2022/10/05 07:47:53;;;;;;;2.50;0.90;;;20.70;83.00;;;;;;5148208;27;45170;-75
2022/10/05 07:50:24;;;;;;;1.90;1.00;;;20.70;82.00;;;;;;5148232;27;45425;-76
2022/10/05 07:52:56;;;;;;;4.22;0.70;;;20.60;81.90;;;;;;5148181;27;47815;-76
2022/10/05 07:55:26;;;;;;;3.58;0.90;;;20.70;81.90;;;;;;5148202;27;45199;-75
2022/10/05 07:58:06;;;;;;;4.88;1.00;;;20.60;81.70;;;;;;5148276;27;45188;-76
2022/10/05 08:00:54;;;;;;;1.15;0.70;;;20.60;81.70;;;;;;5148368;27;45237;-76
2022/10/05 08:03:30;;;;;;;1.25;0.98;;;20.70;81.70;;;;;;5148224;27;47070;-75
2022/10/05 08:05:58;;;;;;;3.63;0.90;;;20.70;81.70;;;;;;5148111;27;45227;-75
2022/10/05 08:08:37;;;;;;;1.33;0.70;;;20.70;81.70;;;;;;5147989;27;45206;-75
2022/10/05 08:11:13;;;;;;;1.60;0.70;;;20.70;81.70;;;;;;5147747;27;45561;-75
2022/10/05 08:13:47;;;;;;;3.45;0.80;;;20.70;81.70;;;;;;5147714;27;48555;-75
2022/10/05 08:16:16;;;;;;;1.40;0.80;;;20.70;81.60;;;;;;5144841;27;45150;-75
2022/10/05 08:18:54;;;;;;;1.30;0.75;;;20.70;81.50;;;;;;5150916;27;45232;-75
2022/10/05 08:21:25;;;;;;;1.70;0.80;;;20.70;81.50;;;;;;5148063;27;45158;-75
2022/10/05 08:23:57;;;;;;;0.80;0.63;;;20.70;81.50;;;;;;5147476;27;45453;-75
2022/10/05 08:26:34;;;;;;;1.17;0.88;;;20.70;81.50;;;;;;5147810;27;45755;-76
2022/10/05 08:29:10;;;;;;;1.23;0.50;;;20.70;81.50;;;;;;5147859;27;45193;-75
2022/10/05 08:31:40;;;;;;;0.80;0.70;;;20.70;81.50;;;;;;5147911;27;45544;-76
2022/10/05 08:34:20;;;;;;;1.00;0.90;;;20.70;81.40;;;;;;5147868;27;47995;-75
2022/10/05 08:36:56;;;;;;;1.42;0.73;;;20.70;81.40;;;;;;5147376;27;45145;-75
2022/10/05 08:39:26;;;;;;;0.65;0.63;;;20.70;81.40;;;;;;5147558;27;45176;-75
2022/10/05 08:42:17;;;;;;;1.38;0.70;;;20.70;81.40;;;;;;5147619;27;45269;-75
2022/10/05 08:48:35;;;;;;;0.95;0.60;;;20.70;81.40;;;;;;5141472;27;45198;-74
2022/10/05 08:51:37;;;;;;;1.23;0.63;;;20.70;81.50;;;;;;5129247;27;45250;-75
2022/10/05 08:54:31;;;;;;;1.05;0.50;;;20.70;81.50;;;;;;5150435;27;45378;-75
2022/10/05 08:57:22;;;;;;;0.70;0.63;;;20.70;81.50;;;;;;5147126;27;46496;-75
2022/10/05 09:00:05;;;;;;;1.40;0.70;;;20.80;81.50;;;;;;5150083;27;45386;-75
2022/10/05 09:02:49;;;;;;;1.23;0.70;;;20.80;81.50;;;;;;5143415;27;45358;-75
2022/10/05 09:05:32;;;;;;;0.90;0.60;;;20.80;81.50;;;;;;5149340;27;45592;-74
2022/10/05 09:08:35;;;;;;;1.30;0.77;;;20.80;81.40;;;;;;5144527;27;46521;-74
2022/10/05 09:11:06;;;;;;;1.15;0.50;;;20.80;81.40;;;;;;5095569;27;45465;-74
2022/10/05 09:14:04;;;;;;;1.50;0.60;;;20.90;81.50;;;;;;5129058;27;45220;-75
2022/10/05 09:16:52;;;;;;;2.53;0.60;;;20.90;81.40;;;;;;5115291;27;45326;-75
2022/10/05 09:19:52;;;;;;;0.47;0.47;;;20.90;81.40;;;;;;5149734;27;45403;-75
2022/10/05 09:22:37;;;;;;;1.58;0.77;;;20.90;81.20;;;;;;5146770;27;45301;-75
2022/10/05 09:25:21;;;;;;;1.00;0.65;;;20.90;81.20;;;;;;5150374;27;45301;-75
2022/10/05 09:27:54;;;;;;;1.10;0.55;;;20.90;81.20;;;;;;5150295;27;45309;-75
2022/10/05 09:31:13;;;;;;;0.68;0.60;;;20.90;81.20;;;;;;5149850;27;47025;-75
2022/10/05 09:34:20;;;;;;;1.10;0.45;;;20.90;81.20;;;;;;5150295;27;45121;-75
2022/10/05 09:37:41;;;;;;;0.75;0.52;;;20.90;81.20;;;;;;5150104;27;45347;-75
2022/10/05 09:41:05;;;;;;;0.82;0.40;;;20.90;81.20;;;;;;5150196;27;45209;-75
2022/10/05 09:44:10;;;;;;;0.40;0.40;;;20.90;81.20;;;;;;5065729;28;48220;-75
2022/10/05 09:47:02;;;;;;;1.05;0.50;;;20.90;81.40;;;;;;5066076;28;45271;-75
2022/10/05 09:50:04;;;;;;;1.00;0.60;;;20.90;81.50;;;;;;5139326;27;45326;-75
2022/10/05 09:53:00;;;;;;;0.90;0.60;;;20.90;81.60;;;;;;5150388;27;45334;-75
2022/10/05 09:55:47;;;;;;;1.48;0.77;;;20.90;81.40;;;;;;5150003;27;45220;-75
2022/10/05 09:58:49;;;;;;;0.65;0.50;;;20.90;81.30;;;;;;5150045;27;45379;-75
2022/10/05 10:01:34;;;;;;;1.65;0.47;;;20.90;81.20;;;;;;5150110;27;45382;-77
2022/10/05 10:04:21;;;;;;;0.63;0.50;;;20.90;81.20;;;;;;5149617;27;45216;-76
2022/10/05 10:07:25;;;;;;;0.75;0.55;;;20.90;81.20;;;;;;5150403;27;47133;-76
2022/10/05 10:10:14;;;;;;;1.23;0.77;;;20.90;81.30;;;;;;5149615;27;45220;-76
2022/10/05 10:13:15;;;;;;;1.08;0.60;;;20.90;81.30;;;;;;5146356;27;45472;-77
2022/10/05 10:19:27;;;;;;;1.60;0.60;;;20.10;80.60;;;;;;5146919;27;45341;-76
2022/10/05 10:22:19;;;;;;;1.63;0.65;;;21.10;82.00;;;;;;5148613;27;45241;-75
2022/10/05 10:25:23;;;;;;;1.15;0.52;;;20.90;81.70;;;;;;5149647;27;45150;-75
2022/10/05 10:31:34;;;;;;;3.25;1.17;;;20.80;81.60;;;;;;5143636;27;45680;-70
2022/10/05 10:34:18;;;;;;;4.85;1.25;;;20.80;81.60;;;;;;5139955;27;45319;-72
2022/10/05 10:37:05;;;;;;;7.47;0.80;;;20.90;83.10;;;;;;5144575;27;45254;-74
2022/10/05 10:39:48;;;;;;;4.07;1.13;;;20.90;84.60;;;;;;5137338;27;45648;-75
2022/10/05 10:42:31;;;;;;;2.78;0.77;;;21.00;86.10;;;;;;5136001;27;46055;-75
2022/10/05 10:45:19;;;;;;;1.50;0.70;;;21.10;86.00;;;;;;5134353;27;45414;-74
2022/10/05 10:48:00;;;;;;;4.28;0.85;;;21.20;85.90;;;;;;5141292;27;45261;-74
2022/10/05 10:51:04;;;;;;;1.73;0.60;;;21.30;86.40;;;;;;5132850;27;45331;-75
2022/10/05 10:53:52;;;;;;;2.42;0.68;;;21.50;86.30;;;;;;5147512;27;47269;-75
2022/10/05 10:56:48;;;;;;;3.42;0.90;;;21.70;86.30;;;;;;5147046;27;45355;-75
2022/10/05 10:59:57;;;;;;;0.93;0.57;;;21.90;86.60;;;;;;5118839;27;45365;-74
2022/10/05 11:03:01;;;;;;;2.88;0.80;;;21.90;86.90;;;;;;5136331;27;45379;-75
2022/10/05 11:05:54;;;;;;;1.38;0.60;;;22.10;87.50;;;;;;5137385;27;47800;-74
2022/10/05 11:08:52;;;;;;;2.13;1.10;;;22.20;87.70;;;;;;5140074;27;45250;-74
2022/10/05 11:11:38;;;;;;;3.10;0.88;;;22.30;87.60;;;;;;5137817;27;45225;-75
2022/10/05 11:14:35;;;;;;;2.33;0.90;;;22.50;87.80;;;;;;5135967;27;45333;-75
2022/10/05 11:17:43;;;;;;;2.38;0.82;;;22.50;88.00;;;;;;5143852;27;48020;-75
2022/10/05 11:20:53;;;;;;;4.00;0.95;;;22.60;86.70;;;;;;5103925;27;45593;-74
2022/10/05 11:23:36;;;;;;;2.55;0.90;;;22.70;85.90;;;;;;5143674;27;45256;-74
2022/10/05 11:26:25;;;;;;;5.00;1.05;;;22.70;84.90;;;;;;5146431;27;45397;-75
2022/10/05 11:29:21;;;;;;;4.03;1.30;;;22.60;83.90;;;;;;5142753;27;47028;-74
2022/10/05 11:32:06;;;;;;;2.75;1.00;;;22.60;83.50;;;;;;5131540;27;45364;-75
2022/10/05 11:34:56;;;;;;;2.35;0.70;;;22.30;83.30;;;;;;5138154;27;45316;-75
2022/10/05 11:38:03;;;;;;;2.63;0.82;;;22.10;83.60;;;;;;5145566;27;45347;-74
2022/10/05 11:40:57;;;;;;;1.42;0.65;;;21.90;84.00;;;;;;5096480;27;46599;-74
2022/10/05 11:44:02;;;;;;;6.18;0.60;;;21.80;84.30;;;;;;5144338;27;45430;-74
2022/10/05 11:46:37;;;;;;;1.40;0.52;;;21.70;84.70;;;;;;5120109;27;45627;-74
2022/10/05 11:49:24;;;;;;;1.83;0.70;;;21.60;84.60;;;;;;5145675;27;45467;-75
2022/10/05 11:51:59;;;;;;;2.28;0.70;;;21.60;84.90;;;;;;5147473;27;48703;-74
2022/10/05 11:54:56;;;;;;;3.17;0.93;;;21.50;85.10;;;;;;5144530;27;45458;-74
2022/10/05 11:57:31;;;;;;;1.42;0.73;;;21.50;85.00;;;;;;5128455;27;45359;-74
2022/10/05 12:00:09;;;;;;;2.30;0.60;;;21.50;85.20;;;;;;5142147;27;45517;-74
2022/10/05 12:03:12;;;;;;;3.20;0.70;;;21.50;85.30;;;;;;5132983;27;46074;-75
2022/10/05 12:05:49;;;;;;;2.53;0.68;;;21.40;85.20;;;;;;5128665;27;45441;-74
2022/10/05 12:08:27;;;;;;;1.38;0.80;;;21.40;85.30;;;;;;5143246;27;45337;-74
2022/10/05 12:11:07;;;;;;;1.85;0.60;;;21.40;85.40;;;;;;5145504;27;45307;-75
2022/10/05 12:13:42;;;;;;;1.77;0.55;;;21.30;85.50;;;;;;5137771;27;46774;-74
2022/10/05 12:16:15;;;;;;;1.58;0.50;;;21.30;85.50;;;;;;5143360;27;45481;-75
2022/10/05 12:18:48;;;;;;;1.17;0.50;;;21.30;85.60;;;;;;5135623;27;45458;-75
2022/10/05 12:21:26;;;;;;;1.05;0.57;;;21.30;85.60;;;;;;5143695;27;45460;-74
2022/10/05 12:23:58;;;;;;;0.80;0.63;;;21.30;85.70;;;;;;5143670;27;45339;-75
2022/10/05 12:26:31;;;;;;;2.05;0.65;;;21.30;85.60;;;;;;5148896;27;45868;-75
2022/10/05 12:29:07;;;;;;;1.92;0.50;;;21.30;85.50;;;;;;5142719;27;45343;-75
2022/10/05 12:31:41;;;;;;;0.50;0.40;;;21.30;85.50;;;;;;5149257;27;45584;-75
2022/10/05 12:34:19;;;;;;;0.50;0.35;;;21.20;85.40;;;;;;5144840;27;47925;-76
2022/10/05 12:36:51;;;;;;;1.00;0.60;;;21.20;85.40;;;;;;5148423;27;45421;-75
2022/10/05 12:39:26;;;;;;;4.32;0.93;;;21.20;85.40;;;;;;5140460;27;45655;-75
2022/10/05 12:42:03;;;;;;;1.05;0.55;;;21.20;85.20;;;;;;5144347;27;45385;-75
2022/10/05 12:45:02;;;;;;;1.02;0.55;;;21.20;85.40;;;;;;5140444;27;46473;-75
2022/10/05 12:47:41;;;;;;;0.88;0.60;;;21.20;85.20;;;;;;5140035;27;46368;-75
2022/10/05 12:50:19;;;;;;;0.52;0.40;;;21.20;85.40;;;;;;5146020;27;45354;-75
2022/10/05 12:53:01;;;;;;;1.15;0.50;;;21.20;85.50;;;;;;5147792;27;45561;-74
2022/10/05 12:55:33;;;;;;;0.73;0.40;;;21.20;85.30;;;;;;5147851;27;48241;-74
2022/10/05 12:58:11;;;;;;;0.50;0.30;;;21.20;85.40;;;;;;5148792;27;45267;-74
2022/10/05 13:00:47;;;;;;;0.75;0.32;;;21.20;85.20;;;;;;5143833;27;45334;-74
2022/10/05 13:03:23;;;;;;;1.77;0.50;;;21.20;85.20;;;;;;5147212;27;45505;-75
2022/10/05 13:06:03;;;;;;;2.35;0.57;;;21.20;85.20;;;;;;5147624;27;46303;-75
2022/10/05 13:08:36;;;;;;;0.70;0.38;;;21.10;84.90;;;;;;5135911;27;45361;-75
2022/10/05 13:11:08;;;;;;;0.40;0.40;;;21.20;84.90;;;;;;5127735;27;45323;-75
2022/10/05 13:13:49;;;;;;;1.23;0.50;;;21.20;84.90;;;;;;5144345;27;45583;-75
2022/10/05 13:16:27;;;;;;;0.47;0.30;;;21.20;85.90;;;;;;5137569;27;47109;-74
2022/10/05 13:19:09;;;;;;;0.28;0.28;;;21.10;84.70;;;;;;5134139;27;45760;-74
2022/10/05 13:21:54;;;;;;;0.63;0.50;;;21.20;84.80;;;;;;5140339;27;45243;-75
2022/10/05 13:24:25;;;;;;;0.80;0.40;;;21.10;84.60;;;;;;5147311;27;45630;-75
2022/10/05 13:26:58;;;;;;;1.00;0.65;;;21.20;84.50;;;;;;5148065;27;46240;-75
2022/10/05 13:29:33;;;;;;;0.85;0.40;;;21.10;84.50;;;;;;5130936;27;45312;-75
2022/10/05 13:32:06;;;;;;;0.80;0.30;;;21.10;84.50;;;;;;5135275;27;45385;-75
2022/10/05 13:34:39;;;;;;;0.90;0.40;;;21.10;84.50;;;;;;5139217;27;45423;-75
2022/10/05 13:37:13;;;;;;;0.57;0.40;;;21.10;84.50;;;;;;5147806;27;45360;-75
2022/10/05 13:39:53;;;;;;;0.40;0.40;;;21.10;84.70;;;;;;5146550;27;45302;-75
2022/10/05 13:42:28;;;;;;;0.38;0.30;;;21.10;84.70;;;;;;5147109;27;45536;-74
2022/10/05 13:45:00;;;;;;;0.98;0.30;;;21.10;84.70;;;;;;5141379;27;45461;-74
2022/10/05 13:47:34;;;;;;;0.40;0.38;;;21.10;84.70;;;;;;5146522;27;46483;-75
2022/10/05 13:50:05;;;;;;;0.70;0.40;;;21.10;84.60;;;;;;5138656;27;45290;-75
2022/10/05 13:52:47;;;;;;;0.45;0.45;;;21.10;84.50;;;;;;5148078;27;45397;-75
2022/10/05 13:55:26;;;;;;;0.43;0.32;;;21.10;84.30;;;;;;5144950;27;45471;-75
2022/10/05 13:58:04;;;;;;;0.40;0.30;;;21.10;84.20;;;;;;5141037;27;46711;-74
2022/10/05 14:00:40;;;;;;;0.35;0.35;;;21.10;83.90;;;;;;5134995;27;45453;-75
2022/10/05 14:03:31;;;;;;;0.47;0.38;;;21.10;83.80;;;;;;5140179;27;45141;-74
2022/10/05 14:06:00;;;;;;;0.60;0.35;;;21.10;83.90;;;;;;5143115;27;45298;-74
2022/10/05 14:08:31;;;;;;;0.80;0.40;;;21.10;84.90;;;;;;5147500;27;46519;-75